Time;durP1;ratioP1;P1;durP2;ratioP2;P2;SDS_P1;SDS_P2;PMS_P1;PMS_P2;Temp;Humidity;BMP_temperature;BMP_pressure;BME280_temperature;BME280_humidity;BME280_pressure;Samples;Min_cycle;Max_cycle;Signal;HPM_P1;HPM_P2
2023/09/29 00:02:17;;;;;;;11.55;3.08;;;;;;;;;;5012554;28;20175;-64
2023/09/29 00:04:42;;;;;;;8.80;3.58;;;;;;;;;;5013927;28;20245;-65
2023/09/29 00:07:07;;;;;;;15.45;3.83;;;;;;;;;;5011231;28;20195;-64
2023/09/29 00:09:33;;;;;;;8.15;3.55;;;;;;;;;;5012298;28;20198;-64
2023/09/29 00:11:59;;;;;;;7.07;3.03;;;;;;;;;;5010875;28;20171;-64
2023/09/29 00:33:06;;;;;;;16.95;3.92;;;;;;;;;;5004202;28;20177;-70
2023/09/29 00:35:33;;;;;;;11.23;4.22;;;;;;;;;;5007250;28;20171;-70
2023/09/29 00:37:59;;;;;;;10.73;3.60;;;;;;;;;;5013485;28;20253;-70
2023/09/29 00:40:25;;;;;;;10.02;4.63;;;;;;;;;;5011294;28;20634;-70
2023/09/29 00:42:51;;;;;;;7.82;3.15;;;;;;;;;;5009404;28;20270;-69
2023/09/29 00:45:19;;;;;;;9.80;3.45;;;;;;;;;;5009907;28;20366;-70
2023/09/29 00:47:45;;;;;;;11.48;3.55;;;;;;;;;;5010841;28;20226;-70
2023/09/29 00:50:10;;;;;;;8.80;3.20;;;;;;;;;;5011198;28;20612;-70
2023/09/29 00:52:39;;;;;;;14.18;3.47;;;;;;;;;;5000472;28;20171;-70
2023/09/29 00:55:07;;;;;;;8.15;3.25;;;;;;;;;;5005103;28;20269;-71
2023/09/29 00:57:34;;;;;;;15.98;4.03;;;;;;;;;;5011481;28;20175;-71
2023/09/29 00:59:59;;;;;;;7.65;3.00;;;;;;;;;;5008885;28;20199;-71
2023/09/29 01:02:25;;;;;;;11.18;3.88;;;;;;;;;;5010515;28;20262;-71
2023/09/29 01:04:51;;;;;;;9.25;3.30;;;;;;;;;;5006988;28;20840;-69
2023/09/29 01:07:16;;;;;;;8.50;3.10;;;;;;;;;;5008638;28;20434;-71
2023/09/29 01:09:41;;;;;;;14.63;4.00;;;;;;;;;;5005498;28;20246;-70
2023/09/29 01:12:09;;;;;;;11.60;3.30;;;;;;;;;;5005833;28;20175;-70
2023/09/29 01:14:34;;;;;;;14.20;3.60;;;;;;;;;;5007102;28;20179;-70
2023/09/29 01:16:59;;;;;;;8.30;3.03;;;;;;;;;;5011424;28;20183;-70
2023/09/29 01:19:25;;;;;;;7.20;3.97;;;;;;;;;;5010846;28;20210;-70
2023/09/29 01:21:51;;;;;;;16.02;3.17;;;;;;;;;;5011766;28;20178;-71
2023/09/29 01:24:16;;;;;;;14.05;4.38;;;;;;;;;;5010686;28;20194;-70
2023/09/29 01:26:42;;;;;;;13.70;4.70;;;;;;;;;;5010726;28;20183;-70
2023/09/29 01:29:07;;;;;;;8.15;2.75;;;;;;;;;;5002945;28;20268;-70
2023/09/29 01:31:34;;;;;;;7.55;3.50;;;;;;;;;;5006167;28;20179;-70
2023/09/29 01:33:59;;;;;;;12.82;4.07;;;;;;;;;;5009339;28;20187;-70
2023/09/29 01:36:25;;;;;;;13.30;3.45;;;;;;;;;;5009691;28;20187;-69
2023/09/29 01:38:50;;;;;;;13.52;3.72;;;;;;;;;;5010514;28;20194;-70
2023/09/29 01:41:15;;;;;;;13.30;4.05;;;;;;;;;;5010193;28;20221;-70
2023/09/29 01:43:40;;;;;;;14.77;3.80;;;;;;;;;;5009033;28;20194;-70
2023/09/29 01:46:09;;;;;;;8.73;3.35;;;;;;;;;;5010720;28;20190;-70
2023/09/29 01:48:34;;;;;;;16.15;3.70;;;;;;;;;;4997649;28;20268;-70
2023/09/29 01:51:02;;;;;;;8.35;3.58;;;;;;;;;;5009638;28;20638;-69
2023/09/29 01:53:30;;;;;;;9.80;4.05;;;;;;;;;;5009626;28;20179;-70
2023/09/29 01:55:55;;;;;;;8.73;3.22;;;;;;;;;;5005967;28;20179;-69
2023/09/29 01:58:20;;;;;;;9.48;3.70;;;;;;;;;;5023975;28;20209;-69
2023/09/29 02:00:46;;;;;;;17.00;3.33;;;;;;;;;;5009443;28;20183;-70
2023/09/29 02:03:11;;;;;;;9.85;3.50;;;;;;;;;;5007962;28;20262;-70
2023/09/29 02:05:36;;;;;;;12.63;3.97;;;;;;;;;;4999607;28;20206;-70
2023/09/29 02:08:05;;;;;;;11.07;3.70;;;;;;;;;;5001820;28;20179;-70
2023/09/29 02:10:30;;;;;;;12.23;3.85;;;;;;;;;;5009908;28;20167;-69
2023/09/29 02:12:56;;;;;;;11.07;2.88;;;;;;;;;;5009017;28;20212;-70
2023/09/29 02:15:21;;;;;;;10.10;3.33;;;;;;;;;;5009914;28;20218;-69
2023/09/29 02:17:48;;;;;;;19.20;4.00;;;;;;;;;;5011140;28;20233;-69
2023/09/29 02:20:17;;;;;;;9.60;4.40;;;;;;;;;;5008240;28;20793;-70
2023/09/29 02:22:42;;;;;;;13.90;4.38;;;;;;;;;;5001230;28;20665;-69
2023/09/29 02:25:14;;;;;;;8.45;3.22;;;;;;;;;;5004743;28;20207;-70
2023/09/29 02:27:40;;;;;;;10.05;3.20;;;;;;;;;;5007739;28;20182;-70
2023/09/29 02:30:08;;;;;;;7.25;2.88;;;;;;;;;;5009614;28;20199;-69
2023/09/29 02:32:34;;;;;;;10.43;3.20;;;;;;;;;;5007452;28;20175;-69
2023/09/29 02:34:59;;;;;;;11.27;3.80;;;;;;;;;;5008863;28;20499;-70
2023/09/29 02:37:25;;;;;;;10.60;3.45;;;;;;;;;;5007278;28;20556;-70
2023/09/29 02:39:50;;;;;;;10.15;3.70;;;;;;;;;;5009718;28;20290;-70
2023/09/29 02:42:17;;;;;;;8.55;4.05;;;;;;;;;;5008049;28;20183;-69
2023/09/29 02:44:42;;;;;;;10.50;3.70;;;;;;;;;;5009013;28;20206;-70
2023/09/29 02:47:08;;;;;;;5.70;3.03;;;;;;;;;;5008591;28;20213;-70
2023/09/29 02:49:33;;;;;;;9.60;3.88;;;;;;;;;;5007902;28;20194;-70
2023/09/29 02:51:59;;;;;;;11.02;3.75;;;;;;;;;;5010059;28;20179;-70
2023/09/29 02:54:25;;;;;;;10.60;3.92;;;;;;;;;;5002155;28;20249;-69
2023/09/29 02:56:50;;;;;;;6.88;3.28;;;;;;;;;;5000368;28;20186;-70
2023/09/29 02:59:16;;;;;;;9.25;3.10;;;;;;;;;;5008237;28;20199;-70
2023/09/29 03:01:44;;;;;;;12.07;3.13;;;;;;;;;;5007510;28;20538;-70
2023/09/29 03:04:09;;;;;;;9.45;3.35;;;;;;;;;;5009894;28;20195;-70
2023/09/29 03:06:35;;;;;;;5.93;3.00;;;;;;;;;;5012588;28;20185;-70
2023/09/29 03:09:01;;;;;;;9.93;3.70;;;;;;;;;;5009548;28;20203;-70
2023/09/29 03:11:26;;;;;;;13.82;3.70;;;;;;;;;;5013608;28;20171;-70
2023/09/29 03:13:54;;;;;;;8.57;3.10;;;;;;;;;;5007950;28;20730;-69
2023/09/29 03:16:24;;;;;;;6.47;3.13;;;;;;;;;;5009196;28;20666;-69
2023/09/29 03:18:49;;;;;;;9.60;3.40;;;;;;;;;;5009558;28;20195;-69
2023/09/29 03:21:15;;;;;;;10.10;3.58;;;;;;;;;;5011339;28;20249;-70
2023/09/29 03:23:42;;;;;;;6.88;2.85;;;;;;;;;;5012160;28;20181;-70
2023/09/29 03:26:09;;;;;;;5.03;2.88;;;;;;;;;;5012963;28;20644;-70
2023/09/29 03:28:34;;;;;;;8.50;3.53;;;;;;;;;;5014259;28;20865;-70
2023/09/29 03:31:00;;;;;;;7.75;3.08;;;;;;;;;;5012172;28;20175;-70
2023/09/29 03:33:25;;;;;;;9.85;4.18;;;;;;;;;;5020348;28;20540;-70
2023/09/29 03:35:50;;;;;;;7.05;3.40;;;;;;;;;;5006202;28;20183;-70
2023/09/29 03:38:20;;;;;;;8.93;3.58;;;;;;;;;;5010440;28;20198;-70
2023/09/29 03:40:45;;;;;;;11.68;3.20;;;;;;;;;;5010939;28;20215;-70
2023/09/29 03:43:11;;;;;;;7.88;3.42;;;;;;;;;;5012571;28;20636;-70
2023/09/29 03:45:38;;;;;;;6.78;2.92;;;;;;;;;;5007517;28;20710;-70
2023/09/29 03:48:05;;;;;;;8.20;3.13;;;;;;;;;;5012248;28;20214;-70
2023/09/29 03:50:30;;;;;;;8.27;3.42;;;;;;;;;;5011025;28;21239;-70
2023/09/29 03:52:55;;;;;;;6.18;3.08;;;;;;;;;;5011425;28;20266;-70
2023/09/29 03:55:21;;;;;;;7.53;3.63;;;;;;;;;;5009233;28;20274;-70
2023/09/29 03:57:48;;;;;;;6.95;3.58;;;;;;;;;;5010513;28;20183;-70
2023/09/29 04:00:16;;;;;;;7.97;3.28;;;;;;;;;;5009406;28;20209;-70
2023/09/29 04:02:42;;;;;;;6.55;3.05;;;;;;;;;;5009765;28;20211;-70
2023/09/29 04:05:07;;;;;;;7.55;3.17;;;;;;;;;;5001140;28;20280;-70
2023/09/29 04:07:36;;;;;;;7.38;3.30;;;;;;;;;;5010451;28;20175;-70
2023/09/29 04:10:01;;;;;;;8.88;3.55;;;;;;;;;;5010797;28;20214;-70
2023/09/29 04:12:26;;;;;;;9.25;3.10;;;;;;;;;;5009305;28;20175;-70
2023/09/29 04:14:53;;;;;;;8.25;3.25;;;;;;;;;;5011664;28;20190;-70
2023/09/29 04:17:18;;;;;;;5.60;3.00;;;;;;;;;;5011991;28;20182;-70
2023/09/29 04:19:43;;;;;;;6.50;3.05;;;;;;;;;;5012182;28;20199;-70
2023/09/29 04:22:09;;;;;;;6.45;3.42;;;;;;;;;;5001608;28;20250;-70
2023/09/29 04:24:34;;;;;;;5.82;3.10;;;;;;;;;;5007905;28;20249;-70
2023/09/29 04:26:59;;;;;;;5.13;2.67;;;;;;;;;;5011826;28;20636;-70
2023/09/29 04:29:24;;;;;;;10.48;3.28;;;;;;;;;;5009756;28;20215;-70
2023/09/29 04:31:49;;;;;;;8.38;3.28;;;;;;;;;;5010816;28;20197;-69
2023/09/29 04:34:15;;;;;;;7.43;2.85;;;;;;;;;;5010141;28;20620;-70
2023/09/29 04:36:41;;;;;;;5.72;3.00;;;;;;;;;;5012319;28;20209;-69
2023/09/29 04:39:07;;;;;;;8.95;3.72;;;;;;;;;;5005765;28;20299;-68
2023/09/29 04:41:32;;;;;;;15.18;3.20;;;;;;;;;;5005880;28;20295;-68
2023/09/29 04:43:57;;;;;;;7.10;3.13;;;;;;;;;;5009355;28;20190;-70
2023/09/29 04:46:23;;;;;;;5.15;2.75;;;;;;;;;;5025265;28;20178;-69
2023/09/29 04:48:52;;;;;;;6.03;3.28;;;;;;;;;;5010758;28;20248;-70
2023/09/29 04:51:18;;;;;;;6.65;2.92;;;;;;;;;;5010091;28;20207;-70
2023/09/29 04:53:43;;;;;;;7.53;3.13;;;;;;;;;;5010151;28;20629;-69
2023/09/29 04:56:08;;;;;;;9.15;3.13;;;;;;;;;;5010686;28;20175;-69
2023/09/29 04:58:33;;;;;;;7.50;3.33;;;;;;;;;;5002863;28;20265;-69
2023/09/29 05:00:59;;;;;;;8.60;3.13;;;;;;;;;;5006160;28;20171;-69
2023/09/29 05:03:24;;;;;;;5.13;2.72;;;;;;;;;;5010226;28;20163;-70
2023/09/29 05:05:49;;;;;;;5.57;3.08;;;;;;;;;;5008439;28;20214;-71
2023/09/29 05:08:15;;;;;;;8.82;3.17;;;;;;;;;;5010550;28;20198;-70
2023/09/29 05:10:40;;;;;;;6.18;2.47;;;;;;;;;;5009680;28;20171;-70
2023/09/29 05:13:06;;;;;;;6.38;2.50;;;;;;;;;;5008780;28;20197;-70
2023/09/29 05:15:32;;;;;;;5.80;2.60;;;;;;;;;;5010109;28;20210;-70
2023/09/29 05:17:58;;;;;;;5.85;2.38;;;;;;;;;;5001288;28;20250;-70
2023/09/29 05:20:24;;;;;;;5.40;2.67;;;;;;;;;;5008356;28;20639;-70
2023/09/29 05:22:50;;;;;;;6.53;2.80;;;;;;;;;;5005631;28;20187;-70
2023/09/29 05:25:15;;;;;;;9.18;2.70;;;;;;;;;;5007172;28;20214;-70
2023/09/29 05:27:40;;;;;;;5.57;2.63;;;;;;;;;;5009536;28;20210;-69
2023/09/29 05:30:06;;;;;;;4.35;2.83;;;;;;;;;;5007896;28;20202;-69
2023/09/29 05:32:31;;;;;;;4.70;2.33;;;;;;;;;;5010195;28;20175;-70
2023/09/29 05:34:56;;;;;;;7.07;2.97;;;;;;;;;;5009942;28;20635;-70
2023/09/29 05:37:21;;;;;;;8.05;2.88;;;;;;;;;;5009431;28;20178;-70
2023/09/29 05:39:47;;;;;;;6.47;2.40;;;;;;;;;;5011330;28;20203;-69
2023/09/29 05:42:12;;;;;;;2.13;1.83;;;;;;;;;;5009228;28;20185;-69
2023/09/29 05:44:37;;;;;;;7.00;2.70;;;;;;;;;;5008177;28;20628;-70
2023/09/29 05:47:03;;;;;;;6.30;2.17;;;;;;;;;;5010159;28;20654;-70
2023/09/29 05:49:28;;;;;;;3.50;2.20;;;;;;;;;;5008761;28;20225;-70
2023/09/29 05:51:54;;;;;;;4.75;2.17;;;;;;;;;;5009090;28;20175;-70
2023/09/29 05:54:19;;;;;;;7.97;3.15;;;;;;;;;;5008751;28;20308;-70
2023/09/29 05:56:45;;;;;;;10.82;2.42;;;;;;;;;;5009161;28;20469;-70
2023/09/29 05:59:10;;;;;;;5.68;2.20;;;;;;;;;;4997341;28;20214;-70
2023/09/29 06:01:35;;;;;;;4.35;2.17;;;;;;;;;;4999856;28;20179;-70
2023/09/29 06:04:01;;;;;;;3.97;2.38;;;;;;;;;;5001754;28;20344;-70
2023/09/29 06:06:26;;;;;;;5.68;2.30;;;;;;;;;;5003195;28;20254;-70
2023/09/29 06:08:51;;;;;;;5.32;2.20;;;;;;;;;;5005364;28;20681;-70
2023/09/29 06:11:16;;;;;;;6.53;2.05;;;;;;;;;;5020733;28;20618;-70
2023/09/29 06:13:44;;;;;;;6.20;2.63;;;;;;;;;;5009272;28;20181;-70
2023/09/29 06:16:09;;;;;;;3.95;2.55;;;;;;;;;;5009251;28;20218;-71
2023/09/29 06:18:35;;;;;;;4.55;2.60;;;;;;;;;;5008686;28;20229;-70
2023/09/29 06:21:00;;;;;;;4.60;2.28;;;;;;;;;;5008517;28;20270;-70
2023/09/29 06:23:26;;;;;;;3.83;2.00;;;;;;;;;;5009023;28;20681;-70
2023/09/29 06:25:57;;;;;;;2.40;2.00;;;;;;;;;;4996740;28;20207;-70
2023/09/29 06:28:23;;;;;;;5.15;2.33;;;;;;;;;;5018997;28;20248;-70
2023/09/29 06:30:50;;;;;;;3.30;2.70;;;;;;;;;;5009285;28;20187;-71
2023/09/29 06:33:15;;;;;;;5.80;2.40;;;;;;;;;;5007613;28;20634;-71
2023/09/29 06:35:41;;;;;;;3.22;2.60;;;;;;;;;;5010990;28;20250;-71
2023/09/29 06:38:07;;;;;;;6.32;2.05;;;;;;;;;;5008359;28;20682;-70
2023/09/29 06:40:32;;;;;;;3.58;2.30;;;;;;;;;;5010444;28;20179;-70
2023/09/29 06:42:57;;;;;;;4.40;2.17;;;;;;;;;;5013408;28;20187;-70
2023/09/29 06:45:22;;;;;;;4.90;2.83;;;;;;;;;;5003506;28;20211;-70
2023/09/29 06:47:48;;;;;;;6.47;2.55;;;;;;;;;;5007439;28;20178;-70
2023/09/29 06:50:13;;;;;;;4.43;2.40;;;;;;;;;;5013553;28;20202;-70
2023/09/29 06:52:39;;;;;;;6.72;2.88;;;;;;;;;;5008588;28;20183;-71
2023/09/29 06:55:04;;;;;;;4.15;2.85;;;;;;;;;;5009690;28;20227;-69
2023/09/29 06:57:29;;;;;;;6.10;2.72;;;;;;;;;;5007085;28;20677;-69
2023/09/29 06:59:55;;;;;;;6.25;1.95;;;;;;;;;;5011215;28;20223;-70
2023/09/29 07:02:20;;;;;;;4.10;2.40;;;;;;;;;;5008332;28;20282;-71
2023/09/29 07:04:46;;;;;;;4.72;2.92;;;;;;;;;;5003888;28;20264;-71
2023/09/29 07:07:11;;;;;;;4.45;2.33;;;;;;;;;;5007839;28;20194;-71
2023/09/29 07:09:38;;;;;;;4.00;2.47;;;;;;;;;;5013460;28;20209;-71
2023/09/29 07:12:03;;;;;;;4.65;2.53;;;;;;;;;;5009475;28;20171;-71
2023/09/29 07:14:28;;;;;;;4.35;2.55;;;;;;;;;;5008048;28;20221;-70
2023/09/29 07:16:54;;;;;;;4.05;2.40;;;;;;;;;;5009363;28;20238;-70
2023/09/29 07:19:19;;;;;;;6.20;2.70;;;;;;;;;;5010205;28;20226;-70
2023/09/29 07:21:44;;;;;;;7.15;2.20;;;;;;;;;;5007846;28;20183;-70
2023/09/29 07:24:10;;;;;;;3.72;2.17;;;;;;;;;;5004502;28;20646;-70
2023/09/29 07:26:35;;;;;;;4.65;2.20;;;;;;;;;;5014206;28;20715;-70
2023/09/29 07:29:01;;;;;;;5.65;2.80;;;;;;;;;;5010699;28;20706;-70
2023/09/29 07:31:33;;;;;;;5.93;2.55;;;;;;;;;;4998748;28;20289;-70
2023/09/29 07:33:58;;;;;;;5.68;2.72;;;;;;;;;;5000253;28;20180;-70
2023/09/29 07:36:24;;;;;;;6.13;2.55;;;;;;;;;;5007749;28;20222;-70
2023/09/29 07:38:49;;;;;;;3.28;2.00;;;;;;;;;;5015610;28;20233;-70
2023/09/29 07:41:14;;;;;;;5.10;2.13;;;;;;;;;;4997709;28;20201;-70
2023/09/29 07:43:40;;;;;;;3.78;2.20;;;;;;;;;;5008201;28;20183;-70
2023/09/29 07:46:06;;;;;;;7.22;2.38;;;;;;;;;;5012051;28;20635;-70
2023/09/29 07:48:31;;;;;;;4.07;2.30;;;;;;;;;;5008264;28;20306;-70
2023/09/29 07:50:56;;;;;;;4.18;2.25;;;;;;;;;;5009430;28;20171;-69
2023/09/29 07:53:21;;;;;;;5.90;2.65;;;;;;;;;;5011322;28;20209;-70
2023/09/29 07:55:47;;;;;;;4.32;2.70;;;;;;;;;;5010605;28;20258;-70
2023/09/29 07:58:12;;;;;;;5.10;2.22;;;;;;;;;;5009298;28;20252;-70
2023/09/29 08:00:37;;;;;;;8.30;2.67;;;;;;;;;;5011752;28;20181;-70
2023/09/29 08:03:03;;;;;;;3.55;2.03;;;;;;;;;;5010873;28;20428;-71
2023/09/29 08:05:28;;;;;;;5.60;2.30;;;;;;;;;;5009762;28;20199;-69
2023/09/29 08:07:53;;;;;;;3.80;2.58;;;;;;;;;;5006349;28;20171;-70
2023/09/29 08:10:19;;;;;;;5.05;2.38;;;;;;;;;;5008700;28;20187;-71
2023/09/29 08:12:44;;;;;;;5.82;2.42;;;;;;;;;;5008138;28;20266;-70
2023/09/29 08:15:11;;;;;;;7.40;2.45;;;;;;;;;;5008230;28;20294;-71
2023/09/29 08:17:36;;;;;;;4.22;2.78;;;;;;;;;;5000876;28;20182;-69
2023/09/29 08:20:02;;;;;;;3.28;2.10;;;;;;;;;;5011889;28;20646;-70
2023/09/29 08:22:27;;;;;;;4.55;2.30;;;;;;;;;;5008327;28;20218;-70
2023/09/29 08:24:52;;;;;;;7.90;2.35;;;;;;;;;;5010938;28;20290;-70
2023/09/29 08:27:18;;;;;;;3.80;2.47;;;;;;;;;;5010687;28;20207;-71
2023/09/29 08:29:43;;;;;;;3.20;1.90;;;;;;;;;;5009164;28;20270;-70
2023/09/29 08:32:08;;;;;;;4.03;2.08;;;;;;;;;;5010601;28;20619;-70
2023/09/29 08:34:35;;;;;;;8.33;2.80;;;;;;;;;;5011013;28;20555;-70
2023/09/29 08:37:00;;;;;;;4.82;2.63;;;;;;;;;;5011731;28;20435;-70
2023/09/29 08:39:25;;;;;;;5.07;2.00;;;;;;;;;;5007021;28;20199;-70
2023/09/29 08:42:13;;;;;;;4.28;2.50;;;;;;;;;;5008067;28;20191;-71
2023/09/29 08:44:42;;;;;;;5.28;2.33;;;;;;;;;;5006883;28;20207;-71
2023/09/29 08:47:07;;;;;;;4.38;2.00;;;;;;;;;;5006322;28;20183;-71
2023/09/29 08:49:32;;;;;;;5.15;2.08;;;;;;;;;;5011343;28;20264;-71
2023/09/29 08:52:00;;;;;;;2.88;1.70;;;;;;;;;;5008974;28;20741;-71
2023/09/29 08:54:27;;;;;;;4.82;2.20;;;;;;;;;;5009462;28;20194;-70
2023/09/29 08:56:52;;;;;;;5.47;2.38;;;;;;;;;;5011097;28;20277;-70
2023/09/29 08:59:17;;;;;;;4.18;2.05;;;;;;;;;;5010002;28;20773;-71
2023/09/29 09:01:43;;;;;;;6.95;2.00;;;;;;;;;;5004079;28;20708;-70
2023/09/29 09:04:09;;;;;;;3.50;1.55;;;;;;;;;;5005766;28;20253;-71
2023/09/29 09:06:34;;;;;;;4.55;2.28;;;;;;;;;;5007812;28;20183;-70
2023/09/29 09:08:59;;;;;;;6.00;2.30;;;;;;;;;;5011090;28;20655;-70
2023/09/29 09:11:25;;;;;;;6.43;2.17;;;;;;;;;;5010703;28;20171;-70
2023/09/29 09:14:03;;;;;;;3.28;1.50;;;;;;;;;;5009169;28;20175;-70
2023/09/29 09:16:29;;;;;;;3.60;1.75;;;;;;;;;;5008540;28;20667;-71
2023/09/29 09:18:54;;;;;;;3.33;1.70;;;;;;;;;;5009001;28;20707;-71
2023/09/29 09:21:20;;;;;;;4.47;2.05;;;;;;;;;;5008499;28;20261;-71
2023/09/29 09:23:45;;;;;;;2.53;1.50;;;;;;;;;;5001325;28;20265;-71
2023/09/29 09:26:13;;;;;;;6.43;1.95;;;;;;;;;;5006009;28;20206;-70
2023/09/29 09:28:39;;;;;;;3.60;1.58;;;;;;;;;;5004740;28;20264;-71
2023/09/29 09:31:04;;;;;;;2.85;1.88;;;;;;;;;;5008185;28;20631;-71
2023/09/29 09:33:31;;;;;;;3.83;1.40;;;;;;;;;;5012760;28;20183;-71
2023/09/29 09:36:06;;;;;;;5.85;1.38;;;;;;;;;;5007320;28;20470;-70
2023/09/29 09:38:32;;;;;;;3.10;1.33;;;;;;;;;;5010924;28;20292;-71
2023/09/29 09:40:58;;;;;;;2.50;1.50;;;;;;;;;;5009532;28;20186;-70
2023/09/29 09:43:24;;;;;;;3.38;1.80;;;;;;;;;;5009375;28;20191;-70
2023/09/29 09:45:55;;;;;;;2.47;1.48;;;;;;;;;;5001353;28;20230;-70
2023/09/29 09:48:22;;;;;;;4.97;1.45;;;;;;;;;;5007223;28;20199;-71
2023/09/29 09:50:49;;;;;;;3.70;1.63;;;;;;;;;;5005049;28;20244;-70
2023/09/29 09:53:16;;;;;;;2.30;1.38;;;;;;;;;;5008085;28;20179;-71
2023/09/29 09:55:49;;;;;;;3.10;1.50;;;;;;;;;;5003382;28;20178;-70
2023/09/29 09:58:16;;;;;;;3.72;2.05;;;;;;;;;;5010229;28;20209;-70
2023/09/29 10:00:42;;;;;;;4.22;1.70;;;;;;;;;;5010223;28;20186;-70
2023/09/29 10:03:12;;;;;;;4.00;1.60;;;;;;;;;;5021447;28;20646;-70
2023/09/29 10:05:40;;;;;;;4.35;2.17;;;;;;;;;;5003327;28;20617;-70
2023/09/29 10:08:06;;;;;;;6.65;2.22;;;;;;;;;;5007705;28;20174;-70
2023/09/29 10:10:37;;;;;;;3.75;2.17;;;;;;;;;;5008520;28;20269;-70
2023/09/29 10:13:03;;;;;;;4.88;2.40;;;;;;;;;;5002098;28;20637;-70
2023/09/29 10:15:29;;;;;;;4.40;2.35;;;;;;;;;;5006656;28;20195;-70
2023/09/29 10:17:58;;;;;;;5.22;2.30;;;;;;;;;;5003966;28;20206;-70
2023/09/29 10:20:24;;;;;;;4.18;2.13;;;;;;;;;;5027720;28;20569;-70
2023/09/29 10:22:54;;;;;;;6.70;2.33;;;;;;;;;;5013466;28;20623;-71
2023/09/29 10:25:24;;;;;;;4.90;2.38;;;;;;;;;;5011476;28;20206;-70
2023/09/29 10:27:58;;;;;;;4.50;2.47;;;;;;;;;;5017651;28;20170;-71
2023/09/29 10:30:26;;;;;;;3.38;2.35;;;;;;;;;;5011418;28;20186;-70
2023/09/29 10:33:01;;;;;;;3.17;2.08;;;;;;;;;;5008699;28;20171;-70
2023/09/29 10:35:27;;;;;;;4.45;2.58;;;;;;;;;;5009820;28;20182;-70
2023/09/29 10:37:55;;;;;;;5.63;2.30;;;;;;;;;;5013350;28;20187;-70
2023/09/29 10:40:21;;;;;;;6.60;2.20;;;;;;;;;;5011945;28;20190;-70
2023/09/29 10:42:46;;;;;;;4.00;2.10;;;;;;;;;;5012906;28;20189;-70
2023/09/29 10:45:22;;;;;;;3.53;2.03;;;;;;;;;;5008506;28;20238;-70
2023/09/29 10:47:47;;;;;;;4.82;1.92;;;;;;;;;;5006168;28;20182;-70
2023/09/29 10:50:13;;;;;;;3.70;2.27;;;;;;;;;;5008768;28;20195;-70
2023/09/29 10:52:40;;;;;;;4.95;2.60;;;;;;;;;;5010660;28;20820;-70
2023/09/29 10:55:06;;;;;;;6.35;2.30;;;;;;;;;;5013180;28;20179;-71
2023/09/29 10:57:33;;;;;;;4.32;2.65;;;;;;;;;;5010886;28;20203;-70
2023/09/29 11:00:01;;;;;;;3.95;2.10;;;;;;;;;;5010681;28;20199;-71
2023/09/29 11:02:31;;;;;;;3.75;2.38;;;;;;;;;;5009516;28;20183;-71
2023/09/29 11:04:57;;;;;;;5.38;2.38;;;;;;;;;;5008350;28;20207;-71
2023/09/29 11:07:29;;;;;;;9.55;3.40;;;;;;;;;;5009412;28;20254;-71
2023/09/29 11:09:54;;;;;;;7.18;3.15;;;;;;;;;;5009083;28;20226;-71
2023/09/29 11:12:19;;;;;;;4.85;2.15;;;;;;;;;;5010179;28;20600;-71
2023/09/29 11:14:44;;;;;;;1.55;1.25;;;;;;;;;;5013100;28;20266;-70
2023/09/29 11:17:12;;;;;;;1.35;1.25;;;;;;;;;;5010584;28;20219;-73
2023/09/29 11:19:38;;;;;;;3.05;1.40;;;;;;;;;;5009117;28;20199;-73
2023/09/29 11:22:05;;;;;;;1.48;1.10;;;;;;;;;;5010123;28;20229;-75
2023/09/29 11:24:40;;;;;;;3.45;0.90;;;;;;;;;;5011830;28;20276;-74
2023/09/29 11:27:05;;;;;;;5.75;1.00;;;;;;;;;;5013673;28;20182;-74
2023/09/29 11:29:31;;;;;;;2.83;1.00;;;;;;;;;;5010418;28;20226;-73
2023/09/29 11:31:57;;;;;;;2.97;1.15;;;;;;;;;;5012195;28;20232;-72
2023/09/29 11:34:23;;;;;;;2.70;1.10;;;;;;;;;;5011325;28;20167;-72
2023/09/29 11:36:48;;;;;;;3.85;1.25;;;;;;;;;;5011219;28;20194;-72
2023/09/29 11:39:18;;;;;;;4.65;1.42;;;;;;;;;;5012265;28;20204;-74
2023/09/29 11:41:46;;;;;;;5.80;1.35;;;;;;;;;;5005592;28;20194;-72
2023/09/29 11:44:12;;;;;;;5.50;1.27;;;;;;;;;;5010683;28;20293;-73
2023/09/29 11:46:37;;;;;;;5.55;1.52;;;;;;;;;;5010969;28;20262;-72
2023/09/29 11:49:03;;;;;;;2.95;1.30;;;;;;;;;;5012705;28;20203;-72
2023/09/29 11:51:28;;;;;;;3.20;1.20;;;;;;;;;;5011070;28;20206;-72
2023/09/29 11:53:54;;;;;;;10.40;1.63;;;;;;;;;;5009843;28;20708;-72
2023/09/29 11:56:20;;;;;;;9.55;2.22;;;;;;;;;;5011626;28;20187;-72
2023/09/29 11:58:45;;;;;;;4.60;1.40;;;;;;;;;;5009989;28;20197;-74
2023/09/29 12:01:11;;;;;;;9.40;2.00;;;;;;;;;;5010659;28;20171;-71
2023/09/29 12:03:36;;;;;;;5.63;2.67;;;;;;;;;;5011414;28;20573;-72
2023/09/29 12:06:02;;;;;;;7.63;1.38;;;;;;;;;;5009032;28;20213;-74
2023/09/29 12:08:28;;;;;;;5.57;1.60;;;;;;;;;;5009627;28;20210;-73
2023/09/29 12:10:53;;;;;;;5.05;1.65;;;;;;;;;;5009692;28;20179;-73
2023/09/29 12:13:19;;;;;;;5.90;1.48;;;;;;;;;;5006975;28;20577;-70
2023/09/29 12:15:47;;;;;;;5.13;0.95;;;;;;;;;;5011918;28;20198;-71
2023/09/29 12:18:13;;;;;;;3.78;1.00;;;;;;;;;;5009819;28;20206;-72
2023/09/29 12:20:41;;;;;;;8.63;1.00;;;;;;;;;;5009703;28;20187;-73
2023/09/29 12:23:08;;;;;;;4.05;0.70;;;;;;;;;;5019468;28;20513;-71
2023/09/29 12:25:33;;;;;;;4.25;1.08;;;;;;;;;;5009725;28;20207;-71
2023/09/29 12:27:59;;;;;;;5.60;1.20;;;;;;;;;;5007978;28;20222;-72
2023/09/29 12:30:24;;;;;;;4.13;1.00;;;;;;;;;;5010662;22;20281;-65
2023/09/29 12:32:50;;;;;;;4.43;1.48;;;;;;;;;;4989342;28;20202;-65
2023/09/29 12:35:15;;;;;;;7.47;1.52;;;;;;;;;;5007203;28;20233;-65
2023/09/29 12:37:42;;;;;;;3.80;1.00;;;;;;;;;;4994631;28;20538;-65
2023/09/29 12:40:09;;;;;;;4.10;1.30;;;;;;;;;;4995163;28;20701;-66
2023/09/29 12:42:34;;;;;;;5.15;1.10;;;;;;;;;;5000482;28;20278;-66
2023/09/29 12:44:59;;;;;;;3.28;1.20;;;;;;;;;;4995838;28;20281;-65
2023/09/29 12:47:24;;;;;;;5.50;1.70;;;;;;;;;;4999538;28;20210;-66
2023/09/29 12:49:50;;;;;;;3.78;1.20;;;;;;;;;;4993511;28;20506;-66
2023/09/29 12:52:15;;;;;;;3.55;0.90;;;;;;;;;;4999407;28;20632;-66
2023/09/29 12:54:42;;;;;;;2.67;1.10;;;;;;;;;;4995231;28;20181;-66
2023/09/29 12:57:07;;;;;;;3.15;0.98;;;;;;;;;;5000746;28;20526;-66
2023/09/29 12:59:36;;;;;;;2.78;1.25;;;;;;;;;;4997416;28;20256;-65
2023/09/29 13:02:08;;;;;;;7.75;1.33;;;;;;;;;;4997843;28;20180;-65
2023/09/29 13:04:34;;;;;;;6.47;1.30;;;;;;;;;;4996487;28;20204;-66
2023/09/29 13:06:59;;;;;;;3.92;1.50;;;;;;;;;;4999670;28;20179;-66
2023/09/29 13:09:25;;;;;;;8.18;2.22;;;;;;;;;;4999605;28;20214;-67
2023/09/29 13:11:53;;;;;;;8.90;1.60;;;;;;;;;;4995758;28;20172;-65
2023/09/29 13:14:18;;;;;;;6.10;1.60;;;;;;;;;;4998404;28;20308;-65
2023/09/29 13:16:43;;;;;;;7.43;2.20;;;;;;;;;;4985806;28;20175;-65
2023/09/29 13:19:09;;;;;;;7.95;2.47;;;;;;;;;;4986615;28;20291;-66
2023/09/29 13:21:34;;;;;;;5.00;1.48;;;;;;;;;;4992572;28;20178;-66
2023/09/29 13:23:59;;;;;;;7.57;1.88;;;;;;;;;;4997002;28;20194;-65
2023/09/29 13:26:25;;;;;;;12.85;1.60;;;;;;;;;;4993991;28;20290;-65
2023/09/29 13:28:50;;;;;;;9.63;2.60;;;;;;;;;;4989812;28;20247;-65
2023/09/29 13:31:15;;;;;;;10.27;1.83;;;;;;;;;;5000142;28;20267;-67
2023/09/29 13:33:40;;;;;;;8.75;3.10;;;;;;;;;;4987719;28;20641;-65
2023/09/29 13:36:06;;;;;;;8.30;2.30;;;;;;;;;;5001826;28;20197;-65
2023/09/29 13:38:31;;;;;;;6.88;2.40;;;;;;;;;;4992095;28;20194;-65
2023/09/29 13:40:57;;;;;;;8.82;2.80;;;;;;;;;;5004667;28;20270;-65
2023/09/29 13:43:24;;;;;;;10.15;2.67;;;;;;;;;;5007003;28;20285;-66
2023/09/29 13:45:49;;;;;;;9.55;3.25;;;;;;;;;;4992873;28;20287;-65
2023/09/29 13:48:15;;;;;;;10.55;2.90;;;;;;;;;;4997738;28;20267;-66
2023/09/29 13:50:40;;;;;;;10.80;2.75;;;;;;;;;;4995137;28;20211;-66
2023/09/29 13:53:06;;;;;;;9.70;2.33;;;;;;;;;;4990660;28;20743;-66
2023/09/29 13:55:31;;;;;;;10.45;2.08;;;;;;;;;;4988869;28;20246;-66
2023/09/29 13:57:57;;;;;;;7.93;1.98;;;;;;;;;;4990957;28;20172;-65
2023/09/29 14:00:23;;;;;;;6.30;2.05;;;;;;;;;;4997246;28;20943;-66
2023/09/29 14:02:49;;;;;;;6.28;1.92;;;;;;;;;;4999368;28;20183;-65
2023/09/29 14:05:14;;;;;;;8.55;2.25;;;;;;;;;;4993230;28;20563;-66
2023/09/29 14:07:40;;;;;;;8.10;2.33;;;;;;;;;;4991769;28;20401;-66
2023/09/29 14:10:05;;;;;;;8.88;2.15;;;;;;;;;;4990992;28;20441;-65
2023/09/29 14:12:36;;;;;;;6.95;2.13;;;;;;;;;;4986813;28;20187;-66
2023/09/29 14:15:02;;;;;;;7.93;1.85;;;;;;;;;;4992902;28;20186;-66
2023/09/29 14:17:27;;;;;;;11.10;1.98;;;;;;;;;;4997473;28;20337;-66
2023/09/29 14:19:52;;;;;;;6.07;2.22;;;;;;;;;;4988488;28;20657;-66
2023/09/29 14:22:18;;;;;;;7.03;1.70;;;;;;;;;;4986924;28;20694;-66
2023/09/29 14:24:43;;;;;;;6.95;1.80;;;;;;;;;;4996327;28;20210;-66
2023/09/29 14:27:09;;;;;;;7.28;1.77;;;;;;;;;;4990740;28;21106;-66
2023/09/29 14:29:34;;;;;;;9.13;1.83;;;;;;;;;;4995432;28;20206;-66
2023/09/29 14:32:00;;;;;;;5.90;1.80;;;;;;;;;;4991981;28;20172;-66
2023/09/29 14:34:25;;;;;;;7.95;2.10;;;;;;;;;;4996276;28;20183;-65
2023/09/29 14:36:50;;;;;;;4.05;1.40;;;;;;;;;;4997830;28;20184;-66
2023/09/29 14:39:16;;;;;;;7.22;2.20;;;;;;;;;;4996174;28;20199;-65
2023/09/29 14:41:41;;;;;;;7.53;1.95;;;;;;;;;;4992128;28;20632;-64
2023/09/29 14:44:07;;;;;;;6.15;2.38;;;;;;;;;;4994790;28;20665;-64
2023/09/29 14:46:32;;;;;;;7.25;1.70;;;;;;;;;;4993085;28;20678;-64
2023/09/29 14:48:57;;;;;;;8.10;2.22;;;;;;;;;;4993033;28;20210;-64
2023/09/29 14:51:22;;;;;;;6.25;1.60;;;;;;;;;;4995950;28;20283;-64
2023/09/29 14:53:49;;;;;;;4.53;1.75;;;;;;;;;;4989618;28;20183;-65